Time;durP1;ratioP1;P1;durP2;ratioP2;P2;SDS_P1;SDS_P2;PMS_P1;PMS_P2;Temp;Humidity;BMP_temperature;BMP_pressure;BME280_temperature;BME280_humidity;BME280_pressure;Samples;Min_cycle;Max_cycle;Signal;HPM_P1;HPM_P2
2023/05/19 00:01:09;;;;;;;15.37;8.50;;;10.60;1.00;;;;;;5096159;28;20670;-71
2023/05/19 00:03:39;;;;;;;15.37;7.53;;;10.60;1.00;;;;;;5096341;28;20221;-70
2023/05/19 00:06:07;;;;;;;13.63;8.20;;;10.50;1.00;;;;;;5096489;28;20184;-69
2023/05/19 00:08:33;;;;;;;13.50;8.30;;;10.50;1.00;;;;;;5094964;28;20234;-69
2023/05/19 00:11:00;;;;;;;13.63;8.63;;;10.50;1.00;;;;;;5096266;28;20209;-70
2023/05/19 00:13:26;;;;;;;18.63;9.10;;;10.50;1.00;;;;;;5095411;28;20674;-70
2023/05/19 00:15:52;;;;;;;16.10;8.80;;;10.60;1.00;;;;;;5095949;28;20176;-70
2023/05/19 00:18:19;;;;;;;18.50;8.50;;;10.50;1.00;;;;;;5096126;28;20200;-70
2023/05/19 00:20:45;;;;;;;17.13;8.67;;;10.50;1.00;;;;;;5096064;28;20249;-71
2023/05/19 00:23:11;;;;;;;18.17;9.17;;;10.50;1.00;;;;;;5096141;28;20619;-71
2023/05/19 00:25:36;;;;;;;12.90;7.93;;;10.50;1.00;;;;;;5094620;28;20186;-71
2023/05/19 00:28:02;;;;;;;14.27;8.17;;;10.50;1.00;;;;;;5095672;28;20168;-70
2023/05/19 00:30:29;;;;;;;12.20;8.60;;;10.40;1.00;;;;;;5095599;28;20235;-70
2023/05/19 00:32:55;;;;;;;10.77;8.50;;;10.50;1.00;;;;;;5095945;28;20219;-70
2023/05/19 00:35:21;;;;;;;13.67;9.00;;;10.50;1.00;;;;;;5094724;28;20183;-71
2023/05/19 00:37:47;;;;;;;12.10;8.43;;;10.40;1.00;;;;;;5095662;28;20206;-70
2023/05/19 00:40:13;;;;;;;19.23;9.43;;;10.30;1.00;;;;;;5095823;28;20188;-70
2023/05/19 00:42:39;;;;;;;19.77;9.43;;;10.30;1.00;;;;;;5095242;28;20164;-70
2023/05/19 00:45:05;;;;;;;16.47;9.37;;;10.20;3.70;;;;;;5095567;28;20175;-69
2023/05/19 00:47:31;;;;;;;19.00;9.17;;;10.20;4.90;;;;;;5095849;28;20176;-70
2023/05/19 00:49:57;;;;;;;18.70;9.67;;;10.20;6.80;;;;;;5095503;28;20665;-70
2023/05/19 00:52:22;;;;;;;14.03;9.73;;;10.20;7.80;;;;;;5095485;28;20280;-70
2023/05/19 00:54:50;;;;;;;15.47;9.60;;;10.20;9.30;;;;;;5093422;28;20176;-70
2023/05/19 00:57:15;;;;;;;12.17;9.40;;;10.20;9.10;;;;;;5093631;28;20176;-70
2023/05/19 00:59:41;;;;;;;15.73;9.13;;;10.10;11.50;;;;;;5095255;28;20261;-70
2023/05/19 01:02:06;;;;;;;15.30;9.60;;;10.10;12.20;;;;;;5094081;28;20176;-71
2023/05/19 01:04:35;;;;;;;13.87;8.77;;;10.10;13.30;;;;;;5095303;28;20258;-71
2023/05/19 01:07:00;;;;;;;11.37;9.77;;;10.00;15.70;;;;;;5095239;28;20251;-69
2023/05/19 01:09:26;;;;;;;15.03;9.80;;;10.00;14.30;;;;;;5094941;28;20667;-69
2023/05/19 01:11:52;;;;;;;13.47;9.70;;;10.00;14.90;;;;;;5094682;28;20211;-71
2023/05/19 01:14:19;;;;;;;15.53;9.57;;;10.00;16.80;;;;;;5095406;28;20589;-70
2023/05/19 01:17:13;;;;;;;14.60;9.43;;;9.90;19.10;;;;;;5094983;28;20171;-70
2023/05/19 01:20:09;;;;;;;17.00;9.83;;;9.90;20.60;;;;;;5095070;28;20184;-69
2023/05/19 01:23:04;;;;;;;20.07;10.03;;;9.90;21.00;;;;;;5094905;28;20268;-69
2023/05/19 01:25:57;;;;;;;14.83;10.20;;;9.90;21.40;;;;;;5091898;28;20180;-70
2023/05/19 01:28:43;;;;;;;12.50;9.83;;;9.90;21.30;;;;;;5094857;28;20586;-70
2023/05/19 01:31:11;;;;;;;21.73;10.80;;;9.80;22.70;;;;;;5094430;28;20323;-69
2023/05/19 01:33:40;;;;;;;14.83;9.80;;;9.70;23.10;;;;;;5094618;28;20261;-70
2023/05/19 01:36:07;;;;;;;14.13;11.07;;;9.70;24.00;;;;;;5094654;28;20217;-69
2023/05/19 01:38:35;;;;;;;14.60;10.20;;;9.70;24.70;;;;;;5094696;28;20258;-70
2023/05/19 01:41:03;;;;;;;16.13;10.43;;;9.70;25.00;;;;;;5092933;28;20650;-70
2023/05/19 01:43:29;;;;;;;14.10;10.10;;;9.50;28.20;;;;;;5094573;28;20271;-70
2023/05/19 01:45:57;;;;;;;17.57;11.03;;;9.50;31.00;;;;;;5094617;28;20171;-70
2023/05/19 01:48:23;;;;;;;14.43;9.93;;;9.50;32.30;;;;;;5094395;28;20183;-70
2023/05/19 01:50:49;;;;;;;18.57;10.83;;;9.50;32.30;;;;;;5094276;28;20240;-70
2023/05/19 01:53:15;;;;;;;16.40;10.70;;;9.50;31.40;;;;;;5094287;28;20686;-70
2023/05/19 01:55:50;;;;;;;15.33;10.83;;;9.50;31.10;;;;;;5093998;28;20248;-69
2023/05/19 01:58:29;;;;;;;19.17;11.00;;;9.40;32.10;;;;;;5094199;28;20198;-69
2023/05/19 02:01:04;;;;;;;14.57;11.00;;;9.40;33.70;;;;;;5094050;28;20167;-70
2023/05/19 02:03:38;;;;;;;16.43;11.03;;;9.30;36.80;;;;;;5092970;28;20174;-70
2023/05/19 02:06:31;;;;;;;15.07;10.63;;;9.30;37.10;;;;;;5094038;28;20551;-70
2023/05/19 02:09:02;;;;;;;17.67;10.73;;;9.20;39.00;;;;;;5093745;28;20275;-69
2023/05/19 02:11:45;;;;;;;14.07;10.93;;;9.20;41.30;;;;;;5093778;28;20168;-70
2023/05/19 02:14:21;;;;;;;21.50;11.53;;;9.20;41.20;;;;;;5094031;28;20212;-70
2023/05/19 02:16:48;;;;;;;19.57;11.30;;;9.20;42.10;;;;;;5092798;28;20179;-70
2023/05/19 02:19:25;;;;;;;18.23;11.37;;;9.20;43.30;;;;;;5093896;28;20175;-69
2023/05/19 02:21:51;;;;;;;12.43;10.87;;;9.20;42.70;;;;;;5093956;28;20616;-69
2023/05/19 02:24:18;;;;;;;16.53;11.53;;;9.20;44.20;;;;;;5093632;28;20842;-71
2023/05/19 02:26:44;;;;;;;18.83;11.90;;;9.20;42.80;;;;;;5093644;28;20167;-71
2023/05/19 02:29:10;;;;;;;17.17;11.67;;;9.20;43.40;;;;;;5093667;28;20182;-71
2023/05/19 02:31:36;;;;;;;17.50;11.63;;;9.20;45.20;;;;;;5093510;28;20304;-70
2023/05/19 02:34:01;;;;;;;18.60;12.20;;;9.20;45.30;;;;;;5093794;28;20695;-68
2023/05/19 02:36:48;;;;;;;20.00;11.93;;;9.20;46.40;;;;;;5093964;28;20205;-71
2023/05/19 02:39:14;;;;;;;17.47;12.07;;;9.20;46.40;;;;;;5093312;28;20249;-70
2023/05/19 02:41:40;;;;;;;19.13;12.67;;;9.10;48.10;;;;;;5091962;28;20175;-70
2023/05/19 02:44:06;;;;;;;20.17;11.63;;;9.20;49.20;;;;;;5093473;28;20692;-69
2023/05/19 02:46:32;;;;;;;22.97;12.53;;;9.10;49.50;;;;;;5093669;28;20267;-69
2023/05/19 02:48:58;;;;;;;20.80;12.20;;;9.00;49.40;;;;;;5093425;28;20186;-70
2023/05/19 02:51:23;;;;;;;19.67;11.20;;;9.00;50.20;;;;;;5093232;28;20690;-69
2023/05/19 02:53:49;;;;;;;18.70;12.60;;;9.00;49.00;;;;;;5092924;28;20207;-69
2023/05/19 02:56:15;;;;;;;18.67;13.00;;;9.00;50.00;;;;;;5093068;28;20164;-69
2023/05/19 02:58:42;;;;;;;17.63;12.00;;;9.00;51.40;;;;;;5093524;28;20217;-69
2023/05/19 03:01:08;;;;;;;18.83;12.23;;;9.00;51.20;;;;;;5093245;28;20254;-69
2023/05/19 03:03:34;;;;;;;20.30;12.53;;;9.00;51.80;;;;;;5093332;28;20570;-69
2023/05/19 03:06:00;;;;;;;19.63;12.50;;;8.90;52.70;;;;;;5092010;28;20221;-70
2023/05/19 03:08:26;;;;;;;18.67;12.27;;;8.90;54.90;;;;;;5091292;28;20198;-69
2023/05/19 03:10:52;;;;;;;15.57;11.73;;;8.90;55.80;;;;;;5093184;28;20228;-71
2023/05/19 03:13:18;;;;;;;15.33;11.93;;;8.80;56.20;;;;;;5091839;28;20212;-70
2023/05/19 03:15:43;;;;;;;16.77;11.57;;;8.80;57.00;;;;;;5092934;28;20622;-70
2023/05/19 03:18:10;;;;;;;21.50;12.83;;;8.80;57.80;;;;;;5096102;28;20175;-70
2023/05/19 03:20:37;;;;;;;20.63;12.27;;;8.90;55.30;;;;;;5096798;28;20203;-71
2023/05/19 03:23:02;;;;;;;19.10;12.63;;;8.80;54.60;;;;;;5096772;28;20168;-70
2023/05/19 03:25:28;;;;;;;16.60;12.77;;;8.90;53.70;;;;;;5097037;28;20168;-69
2023/05/19 03:27:54;;;;;;;20.33;12.47;;;8.80;52.90;;;;;;5097160;28;20653;-69
2023/05/19 03:30:20;;;;;;;22.60;12.37;;;8.80;52.70;;;;;;5096730;28;20238;-69
2023/05/19 03:32:46;;;;;;;19.27;12.07;;;8.80;52.60;;;;;;5096910;28;20188;-70
2023/05/19 03:35:12;;;;;;;14.83;11.53;;;8.80;53.80;;;;;;5096645;28;20178;-70
2023/05/19 03:37:37;;;;;;;20.17;12.27;;;8.80;53.70;;;;;;5096311;28;20639;-70
2023/05/19 03:40:04;;;;;;;19.40;12.93;;;8.70;52.90;;;;;;5096954;28;20172;-69
2023/05/19 03:42:30;;;;;;;18.40;12.43;;;8.80;53.90;;;;;;5096873;28;20172;-69
2023/05/19 03:44:55;;;;;;;19.07;11.83;;;8.70;55.10;;;;;;5096335;28;20230;-70
2023/05/19 03:47:21;;;;;;;17.83;11.93;;;8.70;56.40;;;;;;5096581;28;20168;-70
2023/05/19 03:49:47;;;;;;;21.27;12.83;;;8.70;57.00;;;;;;5096308;28;20176;-69
2023/05/19 03:52:12;;;;;;;20.67;12.43;;;8.60;58.50;;;;;;5095669;28;20168;-70
2023/05/19 03:54:38;;;;;;;16.33;11.80;;;8.60;61.50;;;;;;5095943;28;20176;-70
2023/05/19 03:57:04;;;;;;;22.80;13.13;;;8.60;63.70;;;;;;5096259;28;20233;-70
2023/05/19 03:59:30;;;;;;;17.83;12.37;;;8.60;64.80;;;;;;5096147;28;20302;-70
2023/05/19 04:01:56;;;;;;;21.90;12.80;;;8.70;65.40;;;;;;5095997;28;20203;-70
2023/05/19 04:04:22;;;;;;;17.67;12.53;;;8.70;62.50;;;;;;5095192;28;20211;-70
2023/05/19 04:06:48;;;;;;;17.00;13.00;;;8.70;60.30;;;;;;5096414;28;20221;-70
2023/05/19 04:09:14;;;;;;;23.03;13.70;;;8.70;59.50;;;;;;5095789;28;20200;-71
2023/05/19 04:11:41;;;;;;;15.47;12.00;;;8.70;65.70;;;;;;5094648;28;20179;-72
2023/05/19 04:14:07;;;;;;;16.57;11.93;;;8.70;64.20;;;;;;5095597;28;20208;-70
2023/05/19 04:16:33;;;;;;;22.03;12.60;;;8.70;70.60;;;;;;5096539;28;20657;-70
2023/05/19 04:18:59;;;;;;;18.93;12.87;;;8.80;68.20;;;;;;5095719;28;20669;-70
2023/05/19 04:21:24;;;;;;;22.27;12.10;;;9.00;63.60;;;;;;5094432;28;20620;-70
2023/05/19 04:23:50;;;;;;;17.27;12.73;;;9.20;51.20;;;;;;5095768;28;20512;-70
2023/05/19 04:26:18;;;;;;;23.23;12.50;;;9.40;41.90;;;;;;5095668;28;20190;-71
2023/05/19 04:28:43;;;;;;;21.33;12.60;;;9.80;35.00;;;;;;5094171;28;20195;-71
2023/05/19 04:31:11;;;;;;;21.60;11.80;;;10.10;23.30;;;;;;5095618;28;20262;-71
2023/05/19 04:33:37;;;;;;;21.57;12.43;;;10.20;13.60;;;;;;5095205;28;20207;-70
2023/05/19 04:36:04;;;;;;;24.13;12.73;;;10.50;10.40;;;;;;5094331;28;20538;-70
2023/05/19 04:38:30;;;;;;;17.43;12.33;;;10.90;1.00;;;;;;5095361;28;20182;-72
2023/05/19 04:40:55;;;;;;;24.30;12.13;;;11.40;1.00;;;;;;5095551;28;20617;-71
2023/05/19 04:43:21;;;;;;;26.07;13.27;;;11.70;1.00;;;;;;5094990;28;20175;-70
2023/05/19 04:45:50;;;;;;;21.03;12.17;;;11.90;1.00;;;;;;5095027;28;20199;-70
2023/05/19 04:48:15;;;;;;;18.97;12.10;;;12.50;1.00;;;;;;5094980;28;20184;-72
2023/05/19 04:50:41;;;;;;;21.53;12.17;;;12.50;1.00;;;;;;5093514;28;20638;-71
2023/05/19 04:53:08;;;;;;;19.13;12.40;;;12.60;1.00;;;;;;5095086;28;20284;-71
2023/05/19 04:55:34;;;;;;;21.57;11.97;;;12.70;1.00;;;;;;5094828;28;20168;-71
2023/05/19 04:57:59;;;;;;;19.57;11.47;;;13.10;1.00;;;;;;5094994;28;20168;-72
2023/05/19 05:00:25;;;;;;;17.90;11.30;;;13.80;1.00;;;;;;5094650;28;20206;-72
2023/05/19 05:02:51;;;;;;;16.60;11.47;;;14.10;1.00;;;;;;5094132;28;20642;-71
2023/05/19 05:05:16;;;;;;;16.07;11.53;;;15.10;1.00;;;;;;5094277;28;20187;-72
2023/05/19 05:07:42;;;;;;;20.43;12.07;;;15.30;1.00;;;;;;5095091;28;20199;-72
2023/05/19 05:10:08;;;;;;;20.23;11.30;;;15.80;1.00;;;;;;5094889;28;20179;-72
2023/05/19 05:12:34;;;;;;;18.57;12.23;;;16.20;99.90;;;;;;5094391;28;20719;-71
2023/05/19 05:15:00;;;;;;;23.97;11.73;;;16.70;1.00;;;;;;5093618;28;20200;-70
2023/05/19 05:17:27;;;;;;;21.03;11.23;;;16.90;99.90;;;;;;5092931;28;20521;-70
2023/05/19 05:19:53;;;;;;;15.60;11.37;;;18.20;99.90;;;;;;5094129;28;20179;-72
2023/05/19 05:22:19;;;;;;;15.65;11.75;;;18.60;36.80;;;;;;5094133;28;20176;-72
2023/05/19 05:24:44;;;;;;;15.43;11.50;;;18.70;99.90;;;;;;5094753;28;20179;-72
2023/05/19 05:27:10;;;;;;;15.85;10.55;;;19.00;99.90;;;;;;5093495;28;20537;-72
2023/05/19 05:29:36;;;;;;;17.42;10.57;;;18.60;1.00;;;;;;5093257;28;20631;-72
2023/05/19 05:32:01;;;;;;;11.40;9.43;;;17.70;99.90;;;;;;5094075;28;20219;-72
2023/05/19 05:34:27;;;;;;;15.48;10.70;;;17.50;1.00;;;;;;5093996;28;20211;-72
2023/05/19 05:36:53;;;;;;;14.27;9.88;;;18.50;99.90;;;;;;5092532;28;20176;-73
2023/05/19 05:39:19;;;;;;;12.20;10.10;;;18.30;1.00;;;;;;5094093;28;20203;-72
2023/05/19 05:41:44;;;;;;;13.98;10.07;;;18.40;99.90;;;;;;5093359;28;20673;-72
2023/05/19 05:44:10;;;;;;;16.25;10.35;;;17.60;1.00;;;;;;5094186;28;20191;-72
2023/05/19 05:46:36;;;;;;;18.30;10.45;;;18.10;99.90;;;;;;5094067;28;20645;-73
2023/05/19 05:49:01;;;;;;;15.02;9.55;;;19.00;1.00;;;;;;5092955;28;20164;-72
2023/05/19 05:51:27;;;;;;;15.25;11.00;;;19.40;1.00;;;;;;5091797;28;20176;-73
2023/05/19 05:53:54;;;;;;;15.77;10.57;;;18.50;1.00;;;;;;5093713;28;20250;-73
2023/05/19 05:56:20;;;;;;;15.85;10.55;;;17.90;99.90;;;;;;5093537;28;20164;-73
2023/05/19 05:58:46;;;;;;;17.38;10.50;;;17.80;1.00;;;;;;5093614;28;20175;-72
2023/05/19 06:01:12;;;;;;;12.38;10.80;;;17.60;1.00;;;;;;5093453;28;20168;-72
2023/05/19 06:03:40;;;;;;;15.70;10.10;;;17.60;99.90;;;;;;5093234;28;20643;-75
2023/05/19 06:06:06;;;;;;;17.08;10.48;;;17.70;1.00;;;;;;5093138;28;20208;-72
2023/05/19 06:08:31;;;;;;;12.82;9.88;;;18.50;99.90;;;;;;5092231;28;20191;-74
2023/05/19 06:10:57;;;;;;;14.48;9.85;;;19.10;1.00;;;;;;5093379;28;20172;-74
2023/05/19 06:13:24;;;;;;;10.45;9.35;;;19.90;99.90;;;;;;5092462;28;20252;-74
2023/05/19 06:15:50;;;;;;;11.43;8.70;;;19.40;1.00;;;;;;5093446;28;20167;-74
2023/05/19 06:18:16;;;;;;;14.05;9.60;;;18.50;58.10;;;;;;5093209;28;20164;-74
2023/05/19 06:20:42;;;;;;;16.38;9.52;;;18.90;99.90;;;;;;5092310;28;20641;-73
2023/05/19 06:23:07;;;;;;;13.02;9.63;;;18.70;1.00;;;;;;5092171;28;20260;-72
2023/05/19 06:25:33;;;;;;;10.60;9.50;;;18.50;1.00;;;;;;5092713;28;20209;-72
2023/05/19 06:27:59;;;;;;;15.80;9.75;;;19.30;99.90;;;;;;5092323;28;20710;-74
2023/05/19 06:30:24;;;;;;;10.60;9.50;;;20.00;99.90;;;;;;5090855;28;20222;-71
2023/05/19 06:32:50;;;;;;;11.88;10.02;;;20.30;31.70;;;;;;5092904;28;20723;-72
2023/05/19 06:35:16;;;;;;;12.70;8.88;;;21.00;1.00;;;;;;5092988;28;20168;-71
2023/05/19 06:37:41;;;;;;;12.30;9.15;;;21.00;99.90;;;;;;5092634;28;20210;-73
2023/05/19 06:40:08;;;;;;;11.80;9.75;;;20.10;1.00;;;;;;5092713;28;20164;-72
2023/05/19 06:42:33;;;;;;;11.05;9.55;;;19.90;99.90;;;;;;5092823;28;20540;-72
2023/05/19 06:44:59;;;;;;;12.27;9.70;;;19.50;1.00;;;;;;5092816;28;20164;-72
2023/05/19 06:47:24;;;;;;;12.63;9.63;;;21.20;99.90;;;;;;5092338;28;20172;-72
2023/05/19 06:49:53;;;;;;;10.45;8.40;;;22.20;1.00;;;;;;5092467;28;20694;-72
2023/05/19 06:52:23;;;;;;;10.70;8.90;;;21.90;1.00;;;;;;5092137;28;20160;-71
2023/05/19 06:54:49;;;;;;;11.50;8.95;;;21.10;1.00;;;;;;5091008;28;20172;-71
2023/05/19 06:57:15;;;;;;;10.95;8.60;;;21.90;77.20;;;;;;5092171;28;20506;-71
2023/05/19 06:59:42;;;;;;;10.45;9.27;;;23.10;1.00;;;;;;5092270;28;20183;-73
2023/05/19 07:02:08;;;;;;;11.32;8.73;;;23.10;1.00;;;;;;5092367;28;20167;-72
2023/05/19 07:04:35;;;;;;;10.32;9.32;;;23.50;1.00;;;;;;5092396;28;20179;-71
2023/05/19 07:07:00;;;;;;;14.27;9.38;;;23.00;1.00;;;;;;5092908;28;20156;-71
2023/05/19 07:09:26;;;;;;;9.00;8.02;;;23.40;1.00;;;;;;5092555;28;20245;-72
2023/05/19 07:11:51;;;;;;;10.43;8.35;;;22.80;1.00;;;;;;5092078;28;20363;-71
2023/05/19 07:14:17;;;;;;;10.30;8.10;;;24.10;1.00;;;;;;5091546;28;20203;-72
2023/05/19 07:16:43;;;;;;;13.65;8.65;;;24.30;56.70;;;;;;5091745;28;20580;-71
2023/05/19 07:19:09;;;;;;;16.35;9.40;;;24.40;55.40;;;;;;5092728;28;20176;-71
2023/05/19 07:21:35;;;;;;;9.60;8.45;;;23.20;57.40;;;;;;5092408;28;20491;-71
2023/05/19 07:24:00;;;;;;;9.30;8.30;;;23.80;1.00;;;;;;5091305;28;20206;-71
2023/05/19 07:26:26;;;;;;;10.13;8.30;;;25.20;54.90;;;;;;5092574;28;20179;-71
2023/05/19 07:28:52;;;;;;;11.38;8.60;;;24.30;54.00;;;;;;5091892;28;20168;-71
2023/05/19 07:31:18;;;;;;;9.25;8.35;;;23.90;55.00;;;;;;5091878;28;20216;-71
2023/05/19 07:33:44;;;;;;;12.43;8.30;;;23.80;55.20;;;;;;5092284;28;20210;-71
2023/05/19 07:36:11;;;;;;;9.45;7.70;;;24.30;1.00;;;;;;5090891;28;20168;-71
2023/05/19 07:38:36;;;;;;;11.13;8.93;;;25.20;53.90;;;;;;5091205;28;20209;-71
2023/05/19 07:41:02;;;;;;;10.65;8.68;;;25.40;51.90;;;;;;5092040;28;20506;-71
2023/05/19 07:43:28;;;;;;;9.27;8.32;;;25.40;51.40;;;;;;5091700;28;20176;-71
2023/05/19 07:45:55;;;;;;;9.88;8.00;;;25.80;50.80;;;;;;5092579;28;20176;-71
2023/05/19 07:48:21;;;;;;;10.40;8.35;;;26.00;49.30;;;;;;5092170;28;20175;-71
2023/05/19 07:50:51;;;;;;;11.80;8.23;;;24.90;50.00;;;;;;5092033;28;20168;-71
2023/05/19 07:53:17;;;;;;;11.90;8.80;;;25.40;99.90;;;;;;5091900;28;20251;-72
2023/05/19 07:55:43;;;;;;;8.73;7.82;;;25.60;99.90;;;;;;5091523;28;20168;-71
2023/05/19 07:58:09;;;;;;;10.98;8.18;;;26.10;99.90;;;;;;5091810;28;20179;-72
2023/05/19 08:00:35;;;;;;;11.77;7.90;;;25.50;99.90;;;;;;5091679;28;20553;-72
2023/05/19 08:03:01;;;;;;;9.70;8.40;;;25.10;99.90;;;;;;5093442;28;20195;-72
2023/05/19 08:05:28;;;;;;;9.65;7.97;;;25.90;99.90;;;;;;5095843;28;20179;-73
2023/05/19 08:07:55;;;;;;;11.32;8.40;;;26.90;99.90;;;;;;5094507;28;20655;-73
2023/05/19 08:10:21;;;;;;;10.00;8.02;;;26.20;1.00;;;;;;5095351;28;20176;-72
2023/05/19 08:12:46;;;;;;;9.35;8.35;;;25.00;99.90;;;;;;5095273;28;20195;-72
2023/05/19 08:15:12;;;;;;;10.55;7.90;;;25.10;99.90;;;;;;5096149;28;20521;-72
2023/05/19 08:17:37;;;;;;;10.63;7.50;;;25.20;99.90;;;;;;5094982;28;20164;-71
2023/05/19 08:20:07;;;;;;;9.85;7.57;;;26.10;99.90;;;;;;5095286;28;20168;-72
2023/05/19 08:22:34;;;;;;;11.18;7.82;;;26.90;1.00;;;;;;5095830;28;20164;-72
2023/05/19 08:25:00;;;;;;;11.38;7.20;;;27.10;45.70;;;;;;5095371;28;20644;-72
2023/05/19 08:27:25;;;;;;;9.73;6.75;;;27.50;45.70;;;;;;5095070;28;20176;-72
2023/05/19 08:29:51;;;;;;;10.10;7.22;;;27.60;44.00;;;;;;5095429;28;20623;-71
2023/05/19 08:32:17;;;;;;;7.93;7.13;;;26.60;46.20;;;;;;5094519;28;20241;-71
2023/05/19 08:34:42;;;;;;;8.82;6.47;;;26.20;44.90;;;;;;5094786;28;20211;-72
2023/05/19 08:37:08;;;;;;;8.15;7.10;;;26.30;47.10;;;;;;5093740;28;20258;-71
2023/05/19 08:39:34;;;;;;;7.45;6.18;;;26.00;46.00;;;;;;5093971;28;20175;-72
2023/05/19 08:42:01;;;;;;;9.82;6.80;;;26.40;46.30;;;;;;5094265;28;20164;-72
2023/05/19 08:44:27;;;;;;;12.50;6.43;;;26.10;46.20;;;;;;5095144;28;20200;-71
2023/05/19 08:47:02;;;;;;;7.40;5.80;;;26.20;46.90;;;;;;5094938;28;20168;-72
2023/05/19 08:49:31;;;;;;;8.68;5.70;;;25.60;46.70;;;;;;5094752;28;20164;-71
2023/05/19 08:52:24;;;;;;;6.43;5.55;;;24.80;48.50;;;;;;5095157;28;20171;-72
2023/05/19 08:54:54;;;;;;;5.78;5.18;;;25.90;46.20;;;;;;5093924;28;20229;-73
2023/05/19 08:57:23;;;;;;;11.48;7.47;;;25.80;47.60;;;;;;5094431;28;20156;-73
2023/05/19 08:59:50;;;;;;;10.88;7.07;;;27.10;46.30;;;;;;5094813;28;20195;-72
2023/05/19 09:02:18;;;;;;;8.88;6.57;;;27.90;43.70;;;;;;5094930;28;20175;-73
2023/05/19 09:04:46;;;;;;;6.72;5.03;;;27.70;43.30;;;;;;5093520;28;20171;-71
2023/05/19 09:07:13;;;;;;;5.93;5.32;;;28.20;41.00;;;;;;5094675;28;20213;-72
2023/05/19 09:09:42;;;;;;;9.10;5.47;;;27.00;42.60;;;;;;5094272;28;20156;-72
2023/05/19 09:12:09;;;;;;;11.10;5.57;;;27.30;43.20;;;;;;5094216;28;20175;-72
2023/05/19 09:14:35;;;;;;;9.27;5.70;;;27.80;42.40;;;;;;5093575;28;20204;-72
2023/05/19 09:17:01;;;;;;;5.38;4.80;;;27.40;41.40;;;;;;5094407;28;20164;-72
2023/05/19 09:19:30;;;;;;;7.53;4.40;;;26.50;42.70;;;;;;5094190;28;20206;-70
2023/05/19 09:22:02;;;;;;;9.00;4.60;;;26.70;42.90;;;;;;5094244;28;20191;-71
2023/05/19 09:24:28;;;;;;;6.65;4.30;;;25.60;44.50;;;;;;5093724;28;20174;-72
2023/05/19 09:26:58;;;;;;;6.00;3.83;;;25.20;44.90;;;;;;5094306;28;20526;-72
2023/05/19 09:29:27;;;;;;;5.15;3.97;;;25.50;45.40;;;;;;5093172;28;20178;-71
2023/05/19 09:32:00;;;;;;;4.90;3.60;;;24.00;44.50;;;;;;5093402;28;20687;-72
2023/05/19 09:34:26;;;;;;;4.45;4.05;;;24.50;46.10;;;;;;5094195;28;20211;-71
2023/05/19 09:36:52;;;;;;;6.53;3.70;;;24.50;46.00;;;;;;5094094;28;20662;-70
2023/05/19 09:39:20;;;;;;;8.35;3.85;;;24.10;46.20;;;;;;5093477;28;20190;-71
2023/05/19 09:41:46;;;;;;;7.22;3.65;;;23.90;46.70;;;;;;5093850;28;20160;-71
2023/05/19 09:44:22;;;;;;;9.63;3.85;;;24.30;46.90;;;;;;5093764;28;20241;-71
2023/05/19 09:46:52;;;;;;;6.88;3.97;;;24.60;45.70;;;;;;5094222;28;20554;-71
2023/05/19 09:49:25;;;;;;;7.18;4.03;;;23.70;47.00;;;;;;5091954;28;20629;-71
2023/05/19 09:51:54;;;;;;;7.68;3.70;;;24.50;47.10;;;;;;5093638;28;20172;-72
2023/05/19 09:54:21;;;;;;;5.82;3.13;;;25.30;45.00;;;;;;5092617;28;20225;-71
2023/05/19 09:56:55;;;;;;;6.10;3.33;;;25.50;42.90;;;;;;5093540;28;20172;-71
2023/05/19 09:59:24;;;;;;;4.80;3.08;;;24.10;43.90;;;;;;5093659;28;20168;-72
2023/05/19 10:01:54;;;;;;;4.68;3.03;;;23.20;45.30;;;;;;5093308;28;20642;-72
2023/05/19 10:04:21;;;;;;;3.85;3.15;;;22.80;46.30;;;;;;5093684;28;20254;-71
2023/05/19 10:06:52;;;;;;;7.18;3.47;;;22.70;99.90;;;;;;5093521;28;20164;-71
2023/05/19 10:09:25;;;;;;;5.68;3.10;;;22.20;99.90;;;;;;5092089;28;20260;-70
2023/05/19 10:11:55;;;;;;;5.07;3.20;;;22.50;1.00;;;;;;5093802;28;20168;-72
2023/05/19 10:14:25;;;;;;;6.15;3.40;;;23.90;99.90;;;;;;5093318;28;20298;-71
2023/05/19 10:16:52;;;;;;;5.10;3.50;;;23.10;99.90;;;;;;5091870;28;20194;-72
2023/05/19 10:19:23;;;;;;;5.53;3.40;;;23.10;99.90;;;;;;5093199;28;20270;-70
2023/05/19 10:21:49;;;;;;;3.22;2.90;;;23.10;99.90;;;;;;5091516;28;20160;-71
2023/05/19 10:24:16;;;;;;;6.10;4.18;;;23.00;99.90;;;;;;5093294;28;20187;-71
2023/05/19 10:26:51;;;;;;;6.32;3.03;;;23.00;2.00;;;;;;5092275;28;20216;-71
2023/05/19 10:29:21;;;;;;;6.05;3.50;;;22.00;47.00;;;;;;5092339;28;20172;-71
2023/05/19 10:31:51;;;;;;;4.75;2.90;;;21.10;1.00;;;;;;5092484;28;20225;-72
2023/05/19 10:34:49;;;;;;;5.60;3.30;;;21.10;1.00;;;;;;5092391;28;20192;-71
2023/05/19 10:37:40;;;;;;;6.57;3.20;;;21.60;1.00;;;;;;5070732;28;20179;-72
2023/05/19 10:40:26;;;;;;;7.03;3.47;;;22.90;99.90;;;;;;5064910;28;20198;-72
2023/05/19 10:43:23;;;;;;;8.73;3.55;;;22.90;99.90;;;;;;5092155;28;20175;-70
2023/05/19 10:45:51;;;;;;;6.20;3.70;;;23.60;99.90;;;;;;5091556;28;20175;-71
2023/05/19 10:48:20;;;;;;;6.70;3.53;;;22.40;99.90;;;;;;5091655;28;20172;-71
2023/05/19 10:50:46;;;;;;;7.13;3.53;;;22.70;99.90;;;;;;5092088;28;20188;-71
2023/05/19 10:53:21;;;;;;;7.43;3.22;;;22.70;99.90;;;;;;5091091;28;20211;-71
2023/05/19 10:55:58;;;;;;;7.00;3.30;;;22.30;99.90;;;;;;5092814;28;20176;-71
2023/05/19 10:58:38;;;;;;;5.43;3.83;;;22.60;99.90;;;;;;5092498;28;20164;-71
2023/05/19 11:01:23;;;;;;;8.02;4.03;;;21.90;1.00;;;;;;5092396;28;20248;-73
2023/05/19 11:03:52;;;;;;;7.00;5.40;;;21.60;1.00;;;;;;5091013;28;20583;-72
2023/05/19 11:06:20;;;;;;;6.35;4.18;;;20.10;1.00;;;;;;5091943;28;20167;-72
2023/05/19 11:08:46;;;;;;;4.90;3.50;;;20.40;3.60;;;;;;5092153;28;20183;-72
2023/05/19 11:11:16;;;;;;;9.30;3.75;;;20.80;1.00;;;;;;5091907;28;20236;-72
2023/05/19 11:13:53;;;;;;;6.07;3.80;;;20.80;1.00;;;;;;5092771;28;20225;-71
2023/05/19 11:16:31;;;;;;;8.65;4.05;;;21.10;1.00;;;;;;5091960;28;20160;-71
2023/05/19 11:18:59;;;;;;;6.50;3.58;;;21.20;1.00;;;;;;5091001;28;20168;-72
2023/05/19 11:22:07;;;;;;;7.78;3.88;;;21.60;1.00;;;;;;5091874;28;20164;-71
2023/05/19 11:24:34;;;;;;;7.90;4.32;;;21.20;1.00;;;;;;5029742;28;20184;-72
2023/05/19 11:27:30;;;;;;;4.95;3.60;;;21.60;1.00;;;;;;5029935;28;20178;-72
2023/05/19 11:30:00;;;;;;;6.00;3.85;;;21.90;1.00;;;;;;5013586;28;20250;-71
2023/05/19 11:32:30;;;;;;;9.18;3.67;;;21.20;1.00;;;;;;5056335;28;20282;-73
2023/05/19 11:34:56;;;;;;;7.18;3.63;;;21.00;1.00;;;;;;5092199;28;20717;-73
2023/05/19 11:37:22;;;;;;;8.63;3.95;;;21.90;1.00;;;;;;5092686;28;20270;-73
2023/05/19 11:39:48;;;;;;;6.30;3.40;;;22.30;1.00;;;;;;5096179;28;20268;-73
2023/05/19 11:42:15;;;;;;;8.10;4.40;;;22.40;1.00;;;;;;5095789;28;20263;-73
2023/05/19 11:44:43;;;;;;;8.35;3.50;;;23.30;1.00;;;;;;5094850;28;20164;-73
2023/05/19 11:47:09;;;;;;;5.82;3.92;;;23.80;1.00;;;;;;5096983;28;20172;-72
2023/05/19 11:49:35;;;;;;;6.80;3.90;;;24.00;99.90;;;;;;5094812;28;20208;-71
2023/05/19 11:52:02;;;;;;;7.25;4.13;;;23.60;99.90;;;;;;5096445;28;20190;-72
2023/05/19 11:54:35;;;;;;;6.18;3.92;;;22.90;99.90;;;;;;5095824;28;20302;-72
2023/05/19 11:57:02;;;;;;;5.20;3.80;;;22.60;99.90;;;;;;5096153;28;20293;-73
2023/05/19 11:59:31;;;;;;;6.13;3.58;;;21.60;99.90;;;;;;5095146;28;20183;-72
2023/05/19 12:02:01;;;;;;;3.97;3.50;;;20.90;1.00;;;;;;5096265;28;20160;-73
2023/05/19 12:04:26;;;;;;;6.10;3.70;;;21.10;1.00;;;;;;5095384;28;20560;-74
2023/05/19 12:06:53;;;;;;;5.53;3.88;;;20.80;1.00;;;;;;5094357;28;20669;-74
2023/05/19 12:09:21;;;;;;;4.68;3.10;;;20.50;1.00;;;;;;5094987;28;20183;-72
2023/05/19 12:11:46;;;;;;;6.55;4.00;;;20.50;1.00;;;;;;5094227;28;20281;-72
2023/05/19 12:14:12;;;;;;;6.32;4.13;;;20.70;1.00;;;;;;5095705;28;20298;-72
2023/05/19 12:16:37;;;;;;;4.70;3.90;;;20.20;1.00;;;;;;5095878;28;20251;-72
2023/05/19 12:19:07;;;;;;;9.10;4.00;;;20.30;1.00;;;;;;5095384;28;20604;-73
2023/05/19 12:21:33;;;;;;;7.05;4.10;;;20.20;1.00;;;;;;5093249;28;20353;-74
2023/05/19 12:23:59;;;;;;;6.68;3.83;;;20.40;1.00;;;;;;5095678;28;20251;-74
2023/05/19 12:26:24;;;;;;;6.82;4.18;;;20.30;1.00;;;;;;5094485;28;20163;-74
2023/05/19 12:28:51;;;;;;;6.10;3.90;;;20.00;1.00;;;;;;5093627;28;20203;-73
2023/05/19 12:31:17;;;;;;;5.10;4.40;;;19.60;1.00;;;;;;5094981;28;20627;-73
2023/05/19 12:33:44;;;;;;;7.35;3.80;;;19.60;99.90;;;;;;5094708;28;20210;-74
2023/05/19 12:36:12;;;;;;;4.97;3.22;;;19.60;1.00;;;;;;5095542;28;20189;-74
2023/05/19 12:38:38;;;;;;;6.10;3.92;;;20.10;1.00;;;;;;5094344;28;20178;-73
2023/05/19 12:41:05;;;;;;;5.30;3.80;;;20.20;81.50;;;;;;5094716;28;20516;-73
2023/05/19 12:43:32;;;;;;;7.85;3.83;;;19.90;98.30;;;;;;5094964;28;20168;-74
2023/05/19 12:45:57;;;;;;;6.88;3.95;;;20.10;39.80;;;;;;5094979;28;20176;-73
2023/05/19 12:48:23;;;;;;;7.07;3.75;;;20.30;1.00;;;;;;5095129;28;20193;-73